< < Back
Terminal Aerodrome Forecast


Current Version              Previous Versions:   1  2  3  4  5  6  7  8  9  

Terminal Aerodrome Forecast

965
FTUS42 KFFC 252300
TAFFTY
TAF
KFTY 252339Z 2600/2624 30005KT P6SM SCT250
     FM260800 VRB03KT 5SM BR SCT100 SCT250
     FM261300 25004KT P6SM SCT250
     FM261600 27006KT P6SM SCT050=

Latest METAR

979
SAUS70 KWBC 261700 RRC
MTRFTY
METAR KFTY 261653Z 29006KT 10SM CLR 30/16 A3007 RMK AO2 SLP172
T03000161


USA.gov is the U.S. government's official web portal to all federal, state and local government web resources and services.